Página principal
METAR-TAF:

METAR-TAF

Aeroportos :

Cape Lisburne, Alasca, Estados Unidos

latitude: 68-53N, longitude: 166-06W, altura: 4 m

Observação actual do tempo

O boletim foi feito há 16 minutos, às 12:55 UTC
Vento 3 kt de es-sudeste
Temperatura 5°C
Humidade 93%
Pressão 1020 hPa
Visibilidade: 16.1 km
Nuvens fragmentadasa uma altura de 8000 ft

METAR: PALU 201255Z AUTO 12003KT 10SM BKN080 05/04 A3011 RMK AO2 SLP195 T00450040

Hora: 05:11 (13:11 UTC)


TAF: em falta

Observações e previsões do tempo de mais de 4000 aeroportos (mensagens METAR e TAF).

As estações disponíveis são os pontos amarelos e vermelhos sobre o mapa.

Mova o rato sobre o mapa para ver o nome da estação.

Depois clique no ponto para visualizar as observações e previsões meteorológicas.

Para alterar o mapa : clique nos botões verdes com uma cruz preta para aumentar o zoom; no botão verde com uma pitada de zoom; ou nas setas verdes para mapas adjacentes.


METAR-TAF: